WHTO2: S Canadian Riv, Whitefield, OK

Data processed at Thu Jan 04 2018 23:46


All information presented herein is the property of the government of the United States of America and may be revised or deleted at any time without prior notice.
Dissemination of this information without the expressed written consent of the Public Affairs Office, Tulsa District U.S. Army Corps of Engineers is strictly prohibited.
These data are gathered electronically and, as presented, have not undergone any form of quality control. These data are not guaranteed to be valid or correct.
Go to home page.
Go to station list.

Upstream stations:

Downstream station:
Previous Day
Next Day
Current Day
    
SHEF ID:       WHTO2     Canadian River near Whitefield,
STATION TYPE:  

               PRECIP     STAGE  RIV-FLOW  BAT-LOAD
                   in        ft       cfs      volt
              Ccp-Rev   Ccp-Rev   Ccp-Rev   Ccp-Rev
(US/Central)
01/02 00:00      0.00      6.02      9789     12.65
01/02 01:00      0.00      5.60      8266     12.65
01/02 02:00      0.00      5.07      6526     12.49
01/02 03:00      0.00      4.55      4992     12.57
01/02 04:00      0.00      4.08      3819     12.57
01/02 05:00      0.00      3.66      2904     12.57
01/02 06:00      0.00      3.29      2207     12.57
01/02 07:00      0.00      3.00      1677     12.57
01/02 08:00      0.00      3.31      2246     12.49
01/02 09:00      0.00      4.94      6118     12.65
01/02 10:00      0.00      5.93      9450     13.05
01/02 11:00      0.00      6.41     11343     13.68
01/02 12:00      0.00      6.64     12325     14.08
01/02 13:00      0.00      6.37     11178     14.16
01/02 14:00      0.00      5.83      9081     14.16
01/02 15:00      0.00      5.22      7017     14.16
01/02 16:00      0.00      4.68      5351     14.00
01/02 17:00      0.00      4.17      4028     13.76
01/02 18:00      0.00      3.73      3046     13.37
01/02 19:00      0.00      3.35      2317     13.05
01/02 20:00      0.00      3.63      2844     12.81
01/02 21:00      0.00      4.91      6026     12.65
01/02 22:00      0.00      5.29      7240     12.65
01/02 23:00      0.00      5.07      6526     12.65